sensor_id;sensor_type;location;lat;lon;timestamp;temperature;humidity
4453;DHT22;2239;48.152;11.584;2023-07-09T00:00:37;22.50;97.70
4453;DHT22;2239;48.152;11.584;2023-07-09T00:03:02;22.50;97.60
4453;DHT22;2239;48.152;11.584;2023-07-09T00:05:28;22.40;98.10
4453;DHT22;2239;48.152;11.584;2023-07-09T00:07:53;22.40;98.00
4453;DHT22;2239;48.152;11.584;2023-07-09T00:10:20;22.40;98.20
4453;DHT22;2239;48.152;11.584;2023-07-09T00:12:46;22.30;98.60
4453;DHT22;2239;48.152;11.584;2023-07-09T00:15:14;22.30;99.00
4453;DHT22;2239;48.152;11.584;2023-07-09T00:17:41;22.30;98.90
4453;DHT22;2239;48.152;11.584;2023-07-09T00:20:15;22.30;98.70
4453;DHT22;2239;48.152;11.584;2023-07-09T00:22:42;22.30;98.80
4453;DHT22;2239;48.152;11.584;2023-07-09T00:25:18;22.30;98.70
4453;DHT22;2239;48.152;11.584;2023-07-09T00:27:45;22.40;98.70
4453;DHT22;2239;48.152;11.584;2023-07-09T00:30:21;22.40;98.80
4453;DHT22;2239;48.152;11.584;2023-07-09T00:32:48;22.30;98.70
4453;DHT22;2239;48.152;11.584;2023-07-09T00:35:14;22.30;98.80
4453;DHT22;2239;48.152;11.584;2023-07-09T00:37:41;22.30;99.00
4453;DHT22;2239;48.152;11.584;2023-07-09T00:40:20;22.30;99.10
4453;DHT22;2239;48.152;11.584;2023-07-09T00:42:48;22.30;99.20
4453;DHT22;2239;48.152;11.584;2023-07-09T00:45:20;22.30;99.30
4453;DHT22;2239;48.152;11.584;2023-07-09T00:47:51;22.30;99.30
4453;DHT22;2239;48.152;11.584;2023-07-09T00:50:34;22.20;99.40
4453;DHT22;2239;48.152;11.584;2023-07-09T00:53:22;22.20;99.90
4453;DHT22;2239;48.152;11.584;2023-07-09T00:56:02;22.10;99.90
4453;DHT22;2239;48.152;11.584;2023-07-09T00:58:30;22.20;99.90
4453;DHT22;2239;48.152;11.584;2023-07-09T01:01:02;22.20;99.90
4453;DHT22;2239;48.152;11.584;2023-07-09T01:03:31;22.10;99.90
4453;DHT22;2239;48.152;11.584;2023-07-09T01:06:00;22.10;99.90
4453;DHT22;2239;48.152;11.584;2023-07-09T01:08:28;22.00;99.90
4453;DHT22;2239;48.152;11.584;2023-07-09T01:10:57;22.00;99.90
4453;DHT22;2239;48.152;11.584;2023-07-09T01:13:23;22.00;99.90
4453;DHT22;2239;48.152;11.584;2023-07-09T01:15:51;21.90;99.90
4453;DHT22;2239;48.152;11.584;2023-07-09T01:18:17;21.90;99.90
4453;DHT22;2239;48.152;11.584;2023-07-09T01:20:42;21.90;99.90
4453;DHT22;2239;48.152;11.584;2023-07-09T01:23:09;21.90;99.90
4453;DHT22;2239;48.152;11.584;2023-07-09T01:25:38;21.90;99.90
4453;DHT22;2239;48.152;11.584;2023-07-09T01:28:06;21.80;99.90
4453;DHT22;2239;48.152;11.584;2023-07-09T01:30:36;21.80;99.90
4453;DHT22;2239;48.152;11.584;2023-07-09T01:33:02;21.80;99.90
4453;DHT22;2239;48.152;11.584;2023-07-09T01:35:30;21.80;99.90
4453;DHT22;2239;48.152;11.584;2023-07-09T01:37:57;21.70;99.90
4453;DHT22;2239;48.152;11.584;2023-07-09T01:40:30;21.70;99.90
4453;DHT22;2239;48.152;11.584;2023-07-09T01:42:57;21.70;99.90
4453;DHT22;2239;48.152;11.584;2023-07-09T01:45:26;21.60;99.90
4453;DHT22;2239;48.152;11.584;2023-07-09T01:47:52;21.60;99.90
4453;DHT22;2239;48.152;11.584;2023-07-09T01:50:20;21.50;99.90
4453;DHT22;2239;48.152;11.584;2023-07-09T01:52:46;21.50;99.90
4453;DHT22;2239;48.152;11.584;2023-07-09T01:55:15;21.40;99.90
4453;DHT22;2239;48.152;11.584;2023-07-09T01:57:42;21.40;99.90
4453;DHT22;2239;48.152;11.584;2023-07-09T02:00:10;21.30;99.90
4453;DHT22;2239;48.152;11.584;2023-07-09T02:02:37;21.30;99.90
4453;DHT22;2239;48.152;11.584;2023-07-09T02:05:05;21.40;99.90
4453;DHT22;2239;48.152;11.584;2023-07-09T02:07:31;21.30;99.90
4453;DHT22;2239;48.152;11.584;2023-07-09T02:09:58;21.30;99.90
4453;DHT22;2239;48.152;11.584;2023-07-09T02:12:24;21.20;99.90
4453;DHT22;2239;48.152;11.584;2023-07-09T02:14:50;21.20;99.90
4453;DHT22;2239;48.152;11.584;2023-07-09T02:17:16;21.20;99.90
4453;DHT22;2239;48.152;11.584;2023-07-09T02:19:42;21.20;99.90
4453;DHT22;2239;48.152;11.584;2023-07-09T02:22:08;21.20;99.90
4453;DHT22;2239;48.152;11.584;2023-07-09T02:24:34;21.10;99.90
4453;DHT22;2239;48.152;11.584;2023-07-09T02:27:03;21.10;99.90
4453;DHT22;2239;48.152;11.584;2023-07-09T02:29:29;21.10;99.90
4453;DHT22;2239;48.152;11.584;2023-07-09T02:31:56;21.00;99.90
4453;DHT22;2239;48.152;11.584;2023-07-09T02:34:25;21.00;99.90
4453;DHT22;2239;48.152;11.584;2023-07-09T02:36:53;21.00;99.90
4453;DHT22;2239;48.152;11.584;2023-07-09T02:39:19;21.00;99.90
4453;DHT22;2239;48.152;11.584;2023-07-09T02:41:45;21.00;99.90
4453;DHT22;2239;48.152;11.584;2023-07-09T02:44:10;21.00;99.90
4453;DHT22;2239;48.152;11.584;2023-07-09T02:46:36;21.00;99.90
4453;DHT22;2239;48.152;11.584;2023-07-09T02:49:06;21.00;99.90
4453;DHT22;2239;48.152;11.584;2023-07-09T02:51:32;21.00;99.90
4453;DHT22;2239;48.152;11.584;2023-07-09T02:53:59;21.00;99.90
4453;DHT22;2239;48.152;11.584;2023-07-09T02:56:25;21.00;99.90
4453;DHT22;2239;48.152;11.584;2023-07-09T02:58:51;21.00;99.90
4453;DHT22;2239;48.152;11.584;2023-07-09T03:01:17;21.00;99.90
4453;DHT22;2239;48.152;11.584;2023-07-09T03:03:42;20.90;99.90
4453;DHT22;2239;48.152;11.584;2023-07-09T03:06:08;20.90;99.90
4453;DHT22;2239;48.152;11.584;2023-07-09T03:08:34;20.80;99.90
4453;DHT22;2239;48.152;11.584;2023-07-09T03:11:07;20.70;99.90
4453;DHT22;2239;48.152;11.584;2023-07-09T03:13:33;20.70;99.90
4453;DHT22;2239;48.152;11.584;2023-07-09T03:15:58;20.60;99.90
4453;DHT22;2239;48.152;11.584;2023-07-09T03:18:24;20.60;99.90
4453;DHT22;2239;48.152;11.584;2023-07-09T03:20:50;20.60;99.90
4453;DHT22;2239;48.152;11.584;2023-07-09T03:23:16;20.60;99.90
4453;DHT22;2239;48.152;11.584;2023-07-09T03:25:42;20.50;99.90
4453;DHT22;2239;48.152;11.584;2023-07-09T03:28:08;20.50;99.90
4453;DHT22;2239;48.152;11.584;2023-07-09T03:30:34;20.40;99.90
4453;DHT22;2239;48.152;11.584;2023-07-09T03:32:59;20.50;99.90
4453;DHT22;2239;48.152;11.584;2023-07-09T03:35:26;20.40;99.90
4453;DHT22;2239;48.152;11.584;2023-07-09T03:37:51;20.40;99.90
4453;DHT22;2239;48.152;11.584;2023-07-09T03:40:23;20.40;99.90
4453;DHT22;2239;48.152;11.584;2023-07-09T03:42:49;20.40;99.90
4453;DHT22;2239;48.152;11.584;2023-07-09T03:45:15;20.40;99.90
4453;DHT22;2239;48.152;11.584;2023-07-09T03:47:41;20.30;99.90
4453;DHT22;2239;48.152;11.584;2023-07-09T03:50:09;20.40;99.90
4453;DHT22;2239;48.152;11.584;2023-07-09T03:52:35;20.30;99.90
4453;DHT22;2239;48.152;11.584;2023-07-09T03:55:01;20.40;99.90
4453;DHT22;2239;48.152;11.584;2023-07-09T03:57:32;20.40;99.90
4453;DHT22;2239;48.152;11.584;2023-07-09T03:59:58;20.40;99.90
4453;DHT22;2239;48.152;11.584;2023-07-09T04:02:23;20.40;99.90
4453;DHT22;2239;48.152;11.584;2023-07-09T04:04:49;20.50;99.90
4453;DHT22;2239;48.152;11.584;2023-07-09T04:07:15;20.50;99.90
4453;DHT22;2239;48.152;11.584;2023-07-09T04:09:41;20.50;99.90
4453;DHT22;2239;48.152;11.584;2023-07-09T04:12:09;20.50;99.90
4453;DHT22;2239;48.152;11.584;2023-07-09T04:14:34;20.50;99.90
4453;DHT22;2239;48.152;11.584;2023-07-09T04:17:00;20.50;99.90
4453;DHT22;2239;48.152;11.584;2023-07-09T04:19:26;20.60;99.90
4453;DHT22;2239;48.152;11.584;2023-07-09T04:21:51;20.60;99.90
4453;DHT22;2239;48.152;11.584;2023-07-09T04:24:18;20.60;99.90
4453;DHT22;2239;48.152;11.584;2023-07-09T04:26:44;20.70;99.90
4453;DHT22;2239;48.152;11.584;2023-07-09T04:29:10;20.60;99.90
4453;DHT22;2239;48.152;11.584;2023-07-09T04:31:35;20.70;99.90
4453;DHT22;2239;48.152;11.584;2023-07-09T04:34:01;20.70;99.90
4453;DHT22;2239;48.152;11.584;2023-07-09T04:36:27;20.70;99.90
4453;DHT22;2239;48.152;11.584;2023-07-09T04:38:52;20.70;99.90
4453;DHT22;2239;48.152;11.584;2023-07-09T04:41:18;20.80;99.90
4453;DHT22;2239;48.152;11.584;2023-07-09T04:43:44;20.80;99.90
4453;DHT22;2239;48.152;11.584;2023-07-09T04:46:09;20.90;99.90
4453;DHT22;2239;48.152;11.584;2023-07-09T04:48:35;21.10;99.90
4453;DHT22;2239;48.152;11.584;2023-07-09T04:51:01;21.20;99.90
4453;DHT22;2239;48.152;11.584;2023-07-09T04:53:26;21.20;99.90
4453;DHT22;2239;48.152;11.584;2023-07-09T04:55:52;21.40;99.90
4453;DHT22;2239;48.152;11.584;2023-07-09T04:58:18;21.40;99.90
4453;DHT22;2239;48.152;11.584;2023-07-09T05:00:44;21.50;99.90
4453;DHT22;2239;48.152;11.584;2023-07-09T05:03:11;21.50;99.90
4453;DHT22;2239;48.152;11.584;2023-07-09T05:05:46;21.60;99.90
4453;DHT22;2239;48.152;11.584;2023-07-09T05:08:12;21.70;99.90
4453;DHT22;2239;48.152;11.584;2023-07-09T05:10:50;21.80;99.90
4453;DHT22;2239;48.152;11.584;2023-07-09T05:13:16;21.90;99.90
4453;DHT22;2239;48.152;11.584;2023-07-09T05:15:46;22.00;99.90
4453;DHT22;2239;48.152;11.584;2023-07-09T05:18:15;22.10;99.90
4453;DHT22;2239;48.152;11.584;2023-07-09T05:20:41;22.10;99.90
4453;DHT22;2239;48.152;11.584;2023-07-09T05:23:10;22.20;99.90
4453;DHT22;2239;48.152;11.584;2023-07-09T05:25:36;22.40;99.90
4453;DHT22;2239;48.152;11.584;2023-07-09T05:28:03;22.50;99.90
4453;DHT22;2239;48.152;11.584;2023-07-09T05:30:29;22.70;99.90
4453;DHT22;2239;48.152;11.584;2023-07-09T05:32:54;22.80;99.90
4453;DHT22;2239;48.152;11.584;2023-07-09T05:35:26;22.90;99.90
4453;DHT22;2239;48.152;11.584;2023-07-09T05:37:55;23.00;99.90
4453;DHT22;2239;48.152;11.584;2023-07-09T05:40:31;23.10;99.90
4453;DHT22;2239;48.152;11.584;2023-07-09T05:42:56;23.20;99.90
4453;DHT22;2239;48.152;11.584;2023-07-09T05:45:22;23.30;99.90
4453;DHT22;2239;48.152;11.584;2023-07-09T05:47:47;23.40;99.90
4453;DHT22;2239;48.152;11.584;2023-07-09T05:50:13;23.60;99.90
4453;DHT22;2239;48.152;11.584;2023-07-09T05:52:38;23.70;99.90
4453;DHT22;2239;48.152;11.584;2023-07-09T05:55:05;23.80;99.90
4453;DHT22;2239;48.152;11.584;2023-07-09T05:57:31;24.00;99.80
4453;DHT22;2239;48.152;11.584;2023-07-09T05:59:56;24.10;99.20
4453;DHT22;2239;48.152;11.584;2023-07-09T06:02:22;24.20;98.50
4453;DHT22;2239;48.152;11.584;2023-07-09T06:04:48;24.30;97.40
4453;DHT22;2239;48.152;11.584;2023-07-09T06:07:16;24.40;97.40
4453;DHT22;2239;48.152;11.584;2023-07-09T06:09:44;24.40;96.90
4453;DHT22;2239;48.152;11.584;2023-07-09T06:12:11;24.40;96.70
4453;DHT22;2239;48.152;11.584;2023-07-09T06:14:36;24.40;96.70
4453;DHT22;2239;48.152;11.584;2023-07-09T06:17:02;24.50;96.20
4453;DHT22;2239;48.152;11.584;2023-07-09T06:19:28;24.60;95.80
4453;DHT22;2239;48.152;11.584;2023-07-09T06:21:53;24.80;95.00
4453;DHT22;2239;48.152;11.584;2023-07-09T06:24:19;25.00;94.70
4453;DHT22;2239;48.152;11.584;2023-07-09T06:26:45;25.20;94.20
4453;DHT22;2239;48.152;11.584;2023-07-09T06:29:10;25.30;93.90
4453;DHT22;2239;48.152;11.584;2023-07-09T06:31:36;25.40;93.50
4453;DHT22;2239;48.152;11.584;2023-07-09T06:34:03;25.50;92.90
4453;DHT22;2239;48.152;11.584;2023-07-09T06:36:28;25.60;93.30
4453;DHT22;2239;48.152;11.584;2023-07-09T06:38:54;25.80;92.80
4453;DHT22;2239;48.152;11.584;2023-07-09T06:41:19;26.00;92.50
4453;DHT22;2239;48.152;11.584;2023-07-09T06:43:46;26.10;91.00
4453;DHT22;2239;48.152;11.584;2023-07-09T06:46:13;26.20;90.80
4453;DHT22;2239;48.152;11.584;2023-07-09T06:48:39;26.20;90.40
4453;DHT22;2239;48.152;11.584;2023-07-09T06:51:05;26.40;90.60
4453;DHT22;2239;48.152;11.584;2023-07-09T06:53:31;26.50;90.20
4453;DHT22;2239;48.152;11.584;2023-07-09T06:55:57;26.60;89.80
4453;DHT22;2239;48.152;11.584;2023-07-09T06:58:26;26.70;88.00
4453;DHT22;2239;48.152;11.584;2023-07-09T07:00:54;26.80;87.70
4453;DHT22;2239;48.152;11.584;2023-07-09T07:03:21;26.90;87.60
4453;DHT22;2239;48.152;11.584;2023-07-09T07:05:49;27.10;86.80
4453;DHT22;2239;48.152;11.584;2023-07-09T07:08:17;27.20;84.20
4453;DHT22;2239;48.152;11.584;2023-07-09T07:10:43;27.40;83.60
4453;DHT22;2239;48.152;11.584;2023-07-09T07:13:09;27.60;82.90
4453;DHT22;2239;48.152;11.584;2023-07-09T07:15:37;27.80;82.10
4453;DHT22;2239;48.152;11.584;2023-07-09T07:18:03;27.90;80.60
4453;DHT22;2239;48.152;11.584;2023-07-09T07:20:30;28.10;79.90
4453;DHT22;2239;48.152;11.584;2023-07-09T07:22:56;28.10;79.10
4453;DHT22;2239;48.152;11.584;2023-07-09T07:25:23;28.20;78.90
4453;DHT22;2239;48.152;11.584;2023-07-09T07:27:49;28.20;78.60
4453;DHT22;2239;48.152;11.584;2023-07-09T07:30:14;28.20;78.10
4453;DHT22;2239;48.152;11.584;2023-07-09T07:32:47;28.30;77.60
4453;DHT22;2239;48.152;11.584;2023-07-09T07:35:14;28.50;76.80
4453;DHT22;2239;48.152;11.584;2023-07-09T07:37:41;28.70;76.80
4453;DHT22;2239;48.152;11.584;2023-07-09T07:40:07;28.70;76.60
4453;DHT22;2239;48.152;11.584;2023-07-09T07:42:33;28.70;76.20
4453;DHT22;2239;48.152;11.584;2023-07-09T07:44:59;28.80;74.90
4453;DHT22;2239;48.152;11.584;2023-07-09T07:47:25;28.80;73.90
4453;DHT22;2239;48.152;11.584;2023-07-09T07:49:52;28.80;74.20
4453;DHT22;2239;48.152;11.584;2023-07-09T07:52:18;28.80;72.80
4453;DHT22;2239;48.152;11.584;2023-07-09T07:54:43;28.90;72.90
4453;DHT22;2239;48.152;11.584;2023-07-09T07:57:09;29.00;72.50
4453;DHT22;2239;48.152;11.584;2023-07-09T07:59:35;29.10;72.50
4453;DHT22;2239;48.152;11.584;2023-07-09T08:02:02;29.30;71.90
4453;DHT22;2239;48.152;11.584;2023-07-09T08:04:28;29.60;70.90
4453;DHT22;2239;48.152;11.584;2023-07-09T08:06:53;29.80;69.40
4453;DHT22;2239;48.152;11.584;2023-07-09T08:09:19;30.00;69.20
4453;DHT22;2239;48.152;11.584;2023-07-09T08:11:45;30.20;68.70
4453;DHT22;2239;48.152;11.584;2023-07-09T08:14:11;30.40;67.80
4453;DHT22;2239;48.152;11.584;2023-07-09T08:16:37;30.50;67.80
4453;DHT22;2239;48.152;11.584;2023-07-09T08:19:02;30.50;66.00
4453;DHT22;2239;48.152;11.584;2023-07-09T08:21:28;30.50;65.40
4453;DHT22;2239;48.152;11.584;2023-07-09T08:23:53;30.50;65.60
4453;DHT22;2239;48.152;11.584;2023-07-09T08:26:19;30.30;65.10
4453;DHT22;2239;48.152;11.584;2023-07-09T08:28:45;30.20;65.20
4453;DHT22;2239;48.152;11.584;2023-07-09T08:31:10;30.30;64.40
4453;DHT22;2239;48.152;11.584;2023-07-09T08:33:36;30.30;64.00
4453;DHT22;2239;48.152;11.584;2023-07-09T08:36:02;30.30;63.00
4453;DHT22;2239;48.152;11.584;2023-07-09T08:38:28;30.40;62.00
4453;DHT22;2239;48.152;11.584;2023-07-09T08:43:32;30.70;59.70
4453;DHT22;2239;48.152;11.584;2023-07-09T08:48:39;30.90;57.50
4453;DHT22;2239;48.152;11.584;2023-07-09T08:51:14;31.10;56.20
4453;DHT22;2239;48.152;11.584;2023-07-09T08:53:52;31.10;56.00
4453;DHT22;2239;48.152;11.584;2023-07-09T08:56:19;31.10;54.60
4453;DHT22;2239;48.152;11.584;2023-07-09T08:58:46;31.20;54.50
4453;DHT22;2239;48.152;11.584;2023-07-09T09:01:31;31.40;55.30
4453;DHT22;2239;48.152;11.584;2023-07-09T09:04:05;31.50;55.10
4453;DHT22;2239;48.152;11.584;2023-07-09T09:06:33;31.80;55.10
4453;DHT22;2239;48.152;11.584;2023-07-09T09:09:35;32.20;53.80
4453;DHT22;2239;48.152;11.584;2023-07-09T09:12:16;32.30;53.10
4453;DHT22;2239;48.152;11.584;2023-07-09T09:14:48;32.50;53.10
4453;DHT22;2239;48.152;11.584;2023-07-09T09:17:17;32.40;52.50
4453;DHT22;2239;48.152;11.584;2023-07-09T09:19:59;32.30;52.60
4453;DHT22;2239;48.152;11.584;2023-07-09T09:22:33;32.20;52.80
4453;DHT22;2239;48.152;11.584;2023-07-09T09:27:42;32.30;52.20
4453;DHT22;2239;48.152;11.584;2023-07-09T09:30:16;32.40;52.40
4453;DHT22;2239;48.152;11.584;2023-07-09T09:32:45;32.30;50.60
4453;DHT22;2239;48.152;11.584;2023-07-09T09:35:14;32.00;50.50
4453;DHT22;2239;48.152;11.584;2023-07-09T09:37:40;32.10;51.20
4453;DHT22;2239;48.152;11.584;2023-07-09T09:40:09;32.30;50.70
4453;DHT22;2239;48.152;11.584;2023-07-09T09:42:34;32.50;50.60
4453;DHT22;2239;48.152;11.584;2023-07-09T09:45:00;32.50;49.60
4453;DHT22;2239;48.152;11.584;2023-07-09T09:47:26;32.50;48.40
4453;DHT22;2239;48.152;11.584;2023-07-09T09:49:53;32.50;48.30
4453;DHT22;2239;48.152;11.584;2023-07-09T09:52:19;32.70;48.50
4453;DHT22;2239;48.152;11.584;2023-07-09T09:54:55;33.10;49.30
4453;DHT22;2239;48.152;11.584;2023-07-09T09:57:24;33.70;47.30
4453;DHT22;2239;48.152;11.584;2023-07-09T09:59:50;34.10;46.70
4453;DHT22;2239;48.152;11.584;2023-07-09T10:02:21;34.30;46.00
4453;DHT22;2239;48.152;11.584;2023-07-09T10:04:48;34.30;46.00
4453;DHT22;2239;48.152;11.584;2023-07-09T10:07:36;34.20;45.10
4453;DHT22;2239;48.152;11.584;2023-07-09T10:10:11;33.70;45.10
4453;DHT22;2239;48.152;11.584;2023-07-09T10:12:50;33.60;45.90
4453;DHT22;2239;48.152;11.584;2023-07-09T10:18:10;33.80;45.60
4453;DHT22;2239;48.152;11.584;2023-07-09T10:20:47;33.80;45.00
4453;DHT22;2239;48.152;11.584;2023-07-09T10:25:54;34.00;45.00
4453;DHT22;2239;48.152;11.584;2023-07-09T10:31:10;34.50;42.80
4453;DHT22;2239;48.152;11.584;2023-07-09T10:33:53;34.40;41.90
4453;DHT22;2239;48.152;11.584;2023-07-09T10:39:29;34.70;42.10
4453;DHT22;2239;48.152;11.584;2023-07-09T10:41:59;34.70;41.00
4453;DHT22;2239;48.152;11.584;2023-07-09T10:44:34;34.90;41.40
4453;DHT22;2239;48.152;11.584;2023-07-09T10:47:05;35.10;40.60
4453;DHT22;2239;48.152;11.584;2023-07-09T10:49:35;35.20;41.10
4453;DHT22;2239;48.152;11.584;2023-07-09T10:52:21;35.40;40.80
4453;DHT22;2239;48.152;11.584;2023-07-09T11:00:32;34.70;40.40
4453;DHT22;2239;48.152;11.584;2023-07-09T11:03:02;34.60;42.30
4453;DHT22;2239;48.152;11.584;2023-07-09T11:05:28;34.70;41.40
4453;DHT22;2239;48.152;11.584;2023-07-09T11:08:21;34.50;41.20
4453;DHT22;2239;48.152;11.584;2023-07-09T11:11:01;33.90;41.60
4453;DHT22;2239;48.152;11.584;2023-07-09T11:15:59;33.40;43.10
4453;DHT22;2239;48.152;11.584;2023-07-09T11:18:33;33.30;42.80
4453;DHT22;2239;48.152;11.584;2023-07-09T11:21:00;33.20;43.10
4453;DHT22;2239;48.152;11.584;2023-07-09T11:23:44;33.40;43.60
4453;DHT22;2239;48.152;11.584;2023-07-09T11:26:28;33.70;42.90
4453;DHT22;2239;48.152;11.584;2023-07-09T11:31:38;34.00;42.80
4453;DHT22;2239;48.152;11.584;2023-07-09T11:36:33;33.60;41.40
4453;DHT22;2239;48.152;11.584;2023-07-09T11:38:59;33.90;41.40
4453;DHT22;2239;48.152;11.584;2023-07-09T11:46:36;34.90;39.70
4453;DHT22;2239;48.152;11.584;2023-07-09T11:49:06;34.90;39.50
4453;DHT22;2239;48.152;11.584;2023-07-09T11:51:42;35.10;39.20
4453;DHT22;2239;48.152;11.584;2023-07-09T11:54:11;35.20;39.20
4453;DHT22;2239;48.152;11.584;2023-07-09T11:56:39;35.50;39.50
4453;DHT22;2239;48.152;11.584;2023-07-09T11:59:05;35.70;38.90
4453;DHT22;2239;48.152;11.584;2023-07-09T12:01:42;35.70;38.30
4453;DHT22;2239;48.152;11.584;2023-07-09T12:04:13;35.40;37.80
4453;DHT22;2239;48.152;11.584;2023-07-09T12:06:40;35.20;38.90
4453;DHT22;2239;48.152;11.584;2023-07-09T12:09:06;35.10;39.00
4453;DHT22;2239;48.152;11.584;2023-07-09T12:11:34;35.10;39.00
4453;DHT22;2239;48.152;11.584;2023-07-09T12:14:13;35.20;39.30
4453;DHT22;2239;48.152;11.584;2023-07-09T12:16:41;35.40;38.90
4453;DHT22;2239;48.152;11.584;2023-07-09T12:19:12;35.20;38.00
4453;DHT22;2239;48.152;11.584;2023-07-09T12:21:39;34.80;38.00
4453;DHT22;2239;48.152;11.584;2023-07-09T12:26:43;33.90;38.70
4453;DHT22;2239;48.152;11.584;2023-07-09T12:29:09;33.60;39.50
4453;DHT22;2239;48.152;11.584;2023-07-09T12:31:35;33.40;40.30
4453;DHT22;2239;48.152;11.584;2023-07-09T12:34:01;33.30;40.10
4453;DHT22;2239;48.152;11.584;2023-07-09T12:36:28;33.10;40.50
4453;DHT22;2239;48.152;11.584;2023-07-09T12:38:59;33.10;40.40
4453;DHT22;2239;48.152;11.584;2023-07-09T12:41:36;33.00;39.60
4453;DHT22;2239;48.152;11.584;2023-07-09T12:44:03;33.10;39.00
4453;DHT22;2239;48.152;11.584;2023-07-09T12:46:29;33.40;39.20
4453;DHT22;2239;48.152;11.584;2023-07-09T12:48:55;33.80;38.20
4453;DHT22;2239;48.152;11.584;2023-07-09T12:51:24;34.10;39.10
4453;DHT22;2239;48.152;11.584;2023-07-09T12:54:16;34.20;39.90
4453;DHT22;2239;48.152;11.584;2023-07-09T12:56:42;34.30;38.10
4453;DHT22;2239;48.152;11.584;2023-07-09T12:59:25;34.30;37.60
4453;DHT22;2239;48.152;11.584;2023-07-09T13:02:16;34.50;38.30
4453;DHT22;2239;48.152;11.584;2023-07-09T13:04:42;34.50;36.40
4453;DHT22;2239;48.152;11.584;2023-07-09T13:09:53;34.40;38.30
4453;DHT22;2239;48.152;11.584;2023-07-09T13:12:21;34.40;38.10
4453;DHT22;2239;48.152;11.584;2023-07-09T13:14:53;34.50;38.60
4453;DHT22;2239;48.152;11.584;2023-07-09T13:17:19;34.50;38.00
4453;DHT22;2239;48.152;11.584;2023-07-09T13:19:46;34.50;38.60
4453;DHT22;2239;48.152;11.584;2023-07-09T13:22:14;34.50;37.70
4453;DHT22;2239;48.152;11.584;2023-07-09T13:24:40;34.50;38.50
4453;DHT22;2239;48.152;11.584;2023-07-09T13:27:11;34.50;38.10
4453;DHT22;2239;48.152;11.584;2023-07-09T13:29:37;34.70;38.50
4453;DHT22;2239;48.152;11.584;2023-07-09T13:32:11;34.70;38.60
4453;DHT22;2239;48.152;11.584;2023-07-09T13:34:37;34.90;38.00
4453;DHT22;2239;48.152;11.584;2023-07-09T13:37:05;34.90;37.50
4453;DHT22;2239;48.152;11.584;2023-07-09T13:39:30;34.90;37.50
4453;DHT22;2239;48.152;11.584;2023-07-09T13:41:57;35.00;38.40
4453;DHT22;2239;48.152;11.584;2023-07-09T13:44:27;35.00;36.50
4453;DHT22;2239;48.152;11.584;2023-07-09T13:46:55;35.00;36.50
4453;DHT22;2239;48.152;11.584;2023-07-09T13:49:23;35.00;36.70
4453;DHT22;2239;48.152;11.584;2023-07-09T13:51:51;35.10;37.10
4453;DHT22;2239;48.152;11.584;2023-07-09T13:54:40;35.00;37.50
4453;DHT22;2239;48.152;11.584;2023-07-09T13:57:09;34.90;37.10
4453;DHT22;2239;48.152;11.584;2023-07-09T13:59:36;34.60;37.90
4453;DHT22;2239;48.152;11.584;2023-07-09T14:02:02;34.60;37.80
4453;DHT22;2239;48.152;11.584;2023-07-09T14:04:28;34.70;37.50
4453;DHT22;2239;48.152;11.584;2023-07-09T14:06:54;34.70;37.40
4453;DHT22;2239;48.152;11.584;2023-07-09T14:09:20;34.60;37.20
4453;DHT22;2239;48.152;11.584;2023-07-09T14:11:51;34.40;37.40
4453;DHT22;2239;48.152;11.584;2023-07-09T14:14:22;34.50;37.80
4453;DHT22;2239;48.152;11.584;2023-07-09T14:16:50;34.60;37.80
4453;DHT22;2239;48.152;11.584;2023-07-09T14:19:19;34.70;37.20
4453;DHT22;2239;48.152;11.584;2023-07-09T14:21:45;34.60;36.90
4453;DHT22;2239;48.152;11.584;2023-07-09T14:24:26;34.70;36.90
4453;DHT22;2239;48.152;11.584;2023-07-09T14:26:54;34.50;36.40
4453;DHT22;2239;48.152;11.584;2023-07-09T14:29:21;34.30;37.40
4453;DHT22;2239;48.152;11.584;2023-07-09T14:31:47;34.20;37.40
4453;DHT22;2239;48.152;11.584;2023-07-09T14:34:19;34.10;37.60
4453;DHT22;2239;48.152;11.584;2023-07-09T14:36:46;34.00;37.80
4453;DHT22;2239;48.152;11.584;2023-07-09T14:39:12;34.00;37.80
4453;DHT22;2239;48.152;11.584;2023-07-09T14:41:37;34.00;38.10
4453;DHT22;2239;48.152;11.584;2023-07-09T14:46:40;34.10;37.70
4453;DHT22;2239;48.152;11.584;2023-07-09T14:49:07;34.20;37.40
4453;DHT22;2239;48.152;11.584;2023-07-09T14:51:32;34.20;37.40
4453;DHT22;2239;48.152;11.584;2023-07-09T14:53:58;34.10;37.50
4453;DHT22;2239;48.152;11.584;2023-07-09T14:56:23;34.10;36.90
4453;DHT22;2239;48.152;11.584;2023-07-09T14:58:49;34.20;37.10
4453;DHT22;2239;48.152;11.584;2023-07-09T15:01:15;34.40;36.80
4453;DHT22;2239;48.152;11.584;2023-07-09T15:03:40;34.40;36.90
4453;DHT22;2239;48.152;11.584;2023-07-09T15:06:06;34.30;37.00
4453;DHT22;2239;48.152;11.584;2023-07-09T15:08:32;34.20;37.50
4453;DHT22;2239;48.152;11.584;2023-07-09T15:10:58;34.30;37.60
4453;DHT22;2239;48.152;11.584;2023-07-09T15:13:31;34.10;36.70
4453;DHT22;2239;48.152;11.584;2023-07-09T15:15:58;34.10;37.20
4453;DHT22;2239;48.152;11.584;2023-07-09T15:18:24;34.10;38.40
4453;DHT22;2239;48.152;11.584;2023-07-09T15:20:54;34.00;37.30
4453;DHT22;2239;48.152;11.584;2023-07-09T15:23:20;33.90;37.30
4453;DHT22;2239;48.152;11.584;2023-07-09T15:25:48;34.00;37.30
4453;DHT22;2239;48.152;11.584;2023-07-09T15:28:14;34.00;37.40
4453;DHT22;2239;48.152;11.584;2023-07-09T15:30:40;33.80;37.60
4453;DHT22;2239;48.152;11.584;2023-07-09T15:33:12;33.80;38.10
4453;DHT22;2239;48.152;11.584;2023-07-09T15:35:38;33.90;37.90
4453;DHT22;2239;48.152;11.584;2023-07-09T15:38:20;33.80;37.80
4453;DHT22;2239;48.152;11.584;2023-07-09T15:40:47;33.70;38.20
4453;DHT22;2239;48.152;11.584;2023-07-09T15:43:14;33.60;38.60
4453;DHT22;2239;48.152;11.584;2023-07-09T15:45:44;33.60;38.50
4453;DHT22;2239;48.152;11.584;2023-07-09T15:48:34;33.50;38.50
4453;DHT22;2239;48.152;11.584;2023-07-09T15:51:00;33.50;38.40
4453;DHT22;2239;48.152;11.584;2023-07-09T15:53:26;33.40;39.10
4453;DHT22;2239;48.152;11.584;2023-07-09T15:55:56;33.40;39.10
4453;DHT22;2239;48.152;11.584;2023-07-09T15:58:43;33.30;38.90
4453;DHT22;2239;48.152;11.584;2023-07-09T16:01:11;33.20;39.70
4453;DHT22;2239;48.152;11.584;2023-07-09T16:03:37;33.10;39.20
4453;DHT22;2239;48.152;11.584;2023-07-09T16:06:03;33.10;39.30
4453;DHT22;2239;48.152;11.584;2023-07-09T16:08:28;32.90;39.10
4453;DHT22;2239;48.152;11.584;2023-07-09T16:10:54;32.90;39.30
4453;DHT22;2239;48.152;11.584;2023-07-09T16:13:23;33.00;39.40
4453;DHT22;2239;48.152;11.584;2023-07-09T16:15:49;32.90;39.20
4453;DHT22;2239;48.152;11.584;2023-07-09T16:18:15;32.90;39.40
4453;DHT22;2239;48.152;11.584;2023-07-09T16:20:41;33.10;39.60
4453;DHT22;2239;48.152;11.584;2023-07-09T16:23:14;33.10;39.70
4453;DHT22;2239;48.152;11.584;2023-07-09T16:25:41;33.10;39.30
4453;DHT22;2239;48.152;11.584;2023-07-09T16:28:14;33.10;39.70
4453;DHT22;2239;48.152;11.584;2023-07-09T16:30:40;33.10;39.80
4453;DHT22;2239;48.152;11.584;2023-07-09T16:33:06;33.00;39.20
4453;DHT22;2239;48.152;11.584;2023-07-09T16:35:32;32.90;39.30
4453;DHT22;2239;48.152;11.584;2023-07-09T16:37:58;32.80;39.50